createdAt,value
2019-02-22T00:01:22.864Z,22.40
2019-02-22T00:04:36.328Z,22.40
2019-02-22T00:07:49.814Z,25.37
2019-02-22T00:11:03.399Z,28.50
2019-02-22T00:14:16.847Z,25.50
2019-02-22T00:17:30.720Z,25.60
2019-02-22T00:20:44.188Z,22.50
2019-02-22T00:23:57.704Z,24.23
2019-02-22T00:27:11.301Z,23.80
2019-02-22T00:30:24.738Z,24.87
2019-02-22T00:33:38.534Z,23.20
2019-02-22T00:36:52.183Z,22.77
2019-02-22T00:43:37.847Z,21.00
2019-02-22T00:46:51.304Z,20.43
2019-02-22T00:50:05.170Z,23.23
2019-02-22T00:53:18.640Z,20.93
2019-02-22T00:56:32.095Z,19.90
2019-02-22T00:59:45.574Z,21.20
2019-02-22T01:02:59.038Z,22.03
2019-02-22T01:06:12.497Z,20.43
2019-02-22T01:09:25.971Z,22.60
2019-02-22T01:12:39.798Z,22.57
2019-02-22T01:15:53.196Z,23.47
2019-02-22T01:19:06.662Z,22.87
2019-02-22T01:22:20.126Z,22.83
2019-02-22T01:25:34.043Z,21.13
2019-02-22T01:28:47.820Z,18.70
2019-02-22T01:32:01.352Z,20.20
2019-02-22T01:35:14.924Z,20.40
2019-02-22T01:38:28.392Z,18.57
2019-02-22T01:41:42.208Z,19.80
2019-02-22T01:44:55.682Z,19.93
2019-02-22T01:48:09.154Z,19.50
2019-02-22T01:51:22.717Z,19.43
2019-02-22T01:54:36.309Z,19.47
2019-02-22T01:57:49.779Z,18.57
2019-02-22T02:01:03.876Z,19.40
2019-02-22T02:04:17.381Z,20.47
2019-02-22T02:07:30.874Z,18.37
2019-02-22T02:10:53.907Z,20.63
2019-02-22T02:13:59.841Z,19.63
2019-02-22T02:17:13.671Z,20.83
2019-02-22T02:20:27.250Z,19.40
2019-02-22T02:23:40.995Z,20.07
2019-02-22T02:26:54.571Z,21.17
2019-02-22T02:30:09.039Z,20.33
2019-02-22T02:33:22.520Z,20.67
2019-02-22T02:36:36.413Z,20.10
2019-02-22T02:39:49.885Z,21.70
2019-02-22T02:43:03.503Z,20.90
2019-02-22T02:46:17.040Z,22.17
2019-02-22T02:49:30.507Z,23.37
2019-02-22T02:52:44.011Z,21.30
2019-02-22T02:55:57.475Z,22.67
2019-02-22T02:59:11.049Z,23.33
2019-02-22T03:02:26.749Z,23.37
2019-02-22T03:06:06.189Z,26.10
2019-02-22T03:09:20.085Z,26.10
2019-02-22T03:12:33.568Z,27.70
2019-02-22T03:15:47.089Z,26.97
2019-02-22T03:19:00.536Z,26.57
2019-02-22T03:22:14.020Z,26.67
2019-02-22T03:25:27.494Z,29.10
2019-02-22T03:28:40.955Z,27.70
2019-02-22T03:31:54.419Z,28.43
2019-02-22T03:35:07.984Z,28.07
2019-02-22T03:38:21.759Z,27.60
2019-02-22T03:41:35.250Z,29.20
2019-02-22T03:44:48.829Z,32.30
2019-02-22T03:48:02.692Z,35.47
2019-02-22T03:51:16.166Z,33.93
2019-02-22T03:54:29.827Z,36.73
2019-02-22T03:57:43.516Z,33.50
2019-02-22T04:00:57.227Z,31.10
2019-02-22T04:04:10.794Z,34.10
2019-02-22T04:07:24.250Z,34.00
2019-02-22T04:10:37.708Z,35.27
2019-02-22T04:13:51.597Z,34.93
2019-02-22T04:17:05.074Z,36.00
2019-02-22T04:20:18.634Z,34.40
2019-02-22T04:23:32.103Z,33.70
2019-02-22T04:26:45.798Z,36.53
2019-02-22T04:29:59.270Z,36.70
2019-02-22T04:33:12.753Z,36.17
2019-02-22T04:36:26.494Z,36.93
2019-02-22T04:39:40.309Z,39.13
2019-02-22T04:42:53.748Z,39.33
2019-02-22T04:46:07.224Z,39.57
2019-02-22T04:49:21.055Z,40.17
2019-02-22T04:52:34.523Z,37.33
2019-02-22T04:55:48.298Z,41.70
2019-02-22T04:59:01.775Z,35.97
2019-02-22T05:02:15.316Z,39.77
2019-02-22T05:05:28.723Z,35.03
2019-02-22T05:08:42.202Z,35.10
2019-02-22T05:11:55.666Z,33.47
2019-02-22T05:15:12.811Z,33.10
2019-02-22T05:18:24.840Z,31.70
2019-02-22T05:21:38.593Z,33.53
2019-02-22T05:24:52.062Z,33.30
2019-02-22T05:28:05.550Z,32.63
2019-02-22T05:31:19.257Z,33.50
2019-02-22T05:34:32.731Z,34.93
2019-02-22T05:37:46.806Z,34.13
2019-02-22T05:41:00.270Z,33.63
2019-02-22T05:44:14.063Z,40.00
2019-02-22T05:47:27.540Z,49.30
2019-02-22T05:50:41.251Z,49.43
2019-02-22T05:53:54.761Z,41.63
2019-02-22T05:57:08.324Z,45.30
2019-02-22T06:00:21.885Z,38.70
2019-02-22T06:03:35.359Z,39.23
2019-02-22T06:06:48.830Z,38.17
2019-02-22T06:10:02.693Z,49.47
2019-02-22T06:13:16.157Z,41.77
2019-02-22T06:16:29.988Z,38.37
2019-02-22T06:19:43.462Z,38.30
2019-02-22T06:22:56.928Z,38.70
2019-02-22T06:26:10.709Z,36.77
2019-02-22T06:29:24.463Z,35.67
2019-02-22T06:32:38.031Z,36.33
2019-02-22T06:35:51.504Z,40.00
2019-02-22T06:39:05.459Z,40.63
2019-02-22T06:42:18.934Z,43.40
2019-02-22T06:45:32.415Z,48.40
2019-02-22T06:48:45.863Z,50.63
2019-02-22T06:51:59.342Z,51.60
2019-02-22T06:55:13.128Z,51.90
2019-02-22T06:58:27.252Z,52.43
2019-02-22T07:01:40.727Z,57.93
2019-02-22T07:04:54.199Z,55.10
2019-02-22T07:08:07.683Z,49.40
2019-02-22T07:11:44.442Z,51.63
2019-02-22T07:14:57.952Z,59.30
2019-02-22T07:18:11.438Z,69.63
2019-02-22T07:21:24.921Z,72.37
2019-02-22T07:24:38.410Z,59.13
2019-02-22T07:27:51.846Z,57.57
2019-02-22T07:31:05.421Z,54.40
2019-02-22T07:34:18.885Z,63.90
2019-02-22T07:37:32.835Z,71.87
2019-02-22T07:40:46.325Z,61.70
2019-02-22T07:43:59.905Z,75.57
2019-02-22T07:47:13.371Z,68.50
2019-02-22T07:50:26.900Z,62.53
2019-02-22T07:53:40.476Z,59.50
2019-02-22T07:56:53.952Z,63.63
2019-02-22T08:03:29.582Z,55.63
2019-02-22T08:06:43.173Z,56.23
2019-02-22T08:09:56.970Z,64.07
2019-02-22T08:13:19.233Z,57.40
2019-02-22T08:16:26.146Z,47.10
2019-02-22T08:19:39.752Z,39.30
2019-02-22T08:22:53.219Z,37.70
2019-02-22T08:26:07.007Z,35.80
2019-02-22T08:29:20.472Z,34.33
2019-02-22T08:32:34.121Z,29.43
2019-02-22T08:35:47.847Z,27.70
2019-02-22T08:39:01.300Z,26.77
2019-02-22T08:42:14.854Z,24.90
2019-02-22T08:45:28.316Z,24.37
2019-02-22T08:48:42.069Z,21.67
2019-02-22T08:51:55.599Z,19.07
2019-02-22T08:55:09.529Z,18.13
2019-02-22T08:58:23.327Z,18.67
2019-02-22T09:01:36.793Z,19.20
2019-02-22T09:04:50.261Z,20.37
2019-02-22T09:08:04.284Z,18.83
2019-02-22T09:11:17.745Z,18.83
2019-02-22T09:14:31.196Z,19.67
2019-02-22T09:17:44.654Z,16.97
2019-02-22T09:20:58.112Z,15.27
2019-02-22T09:24:11.671Z,13.70
2019-02-22T09:27:25.448Z,13.83
2019-02-22T09:30:39.005Z,14.20
2019-02-22T09:33:52.784Z,13.10
2019-02-22T09:37:06.265Z,14.00
2019-02-22T09:40:19.726Z,11.90
2019-02-22T09:43:33.196Z,12.77
2019-02-22T09:46:46.638Z,11.30
2019-02-22T09:50:00.442Z,10.43
2019-02-22T09:53:14.020Z,10.30
2019-02-22T09:56:27.480Z,10.43
2019-02-22T09:59:41.384Z,10.43
2019-02-22T10:02:55.139Z,10.03
2019-02-22T10:06:08.866Z,10.17
2019-02-22T10:09:22.340Z,11.00
2019-02-22T10:12:36.475Z,11.63
2019-02-22T10:15:50.057Z,10.63
2019-02-22T10:19:03.879Z,10.03
2019-02-22T10:22:17.621Z,10.40
2019-02-22T10:25:31.084Z,11.40
2019-02-22T10:28:44.555Z,9.93
2019-02-22T10:31:58.701Z,10.50
2019-02-22T10:35:12.122Z,10.83
2019-02-22T10:38:26.064Z,10.77
2019-02-22T10:41:39.534Z,10.53
2019-02-22T10:44:53.263Z,11.23
2019-02-22T10:48:06.724Z,10.20
2019-02-22T10:51:20.285Z,10.30
2019-02-22T10:54:33.765Z,11.23
2019-02-22T10:57:47.229Z,8.33
2019-02-22T11:01:00.791Z,9.03
2019-02-22T11:04:14.264Z,9.03
2019-02-22T11:07:27.722Z,8.30
2019-02-22T11:10:41.200Z,8.10
2019-02-22T11:13:54.816Z,8.77
2019-02-22T11:17:08.288Z,11.97
2019-02-22T11:20:22.105Z,8.33
2019-02-22T11:23:35.628Z,14.20
2019-02-22T11:26:49.096Z,9.23
2019-02-22T11:30:03.390Z,59.57
2019-02-22T11:33:16.863Z,18.23
2019-02-22T11:36:30.458Z,16.70
2019-02-22T11:39:43.996Z,9.87
2019-02-22T11:42:57.509Z,5.60
2019-02-22T11:46:11.014Z,5.67
2019-02-22T11:49:24.487Z,17.40
2019-02-22T11:52:38.202Z,10.67
2019-02-22T11:55:51.993Z,27.00
2019-02-22T11:59:05.562Z,6.10
2019-02-22T12:02:19.037Z,2.43
2019-02-22T12:05:33.145Z,6.23
2019-02-22T12:08:46.644Z,2.97
2019-02-22T12:12:00.540Z,4.47
2019-02-22T12:15:14.015Z,3.70
2019-02-22T12:18:27.490Z,3.10
2019-02-22T12:21:40.961Z,2.63
2019-02-22T12:24:54.665Z,2.20
2019-02-22T12:28:08.251Z,6.23
2019-02-22T12:31:21.820Z,4.07
2019-02-22T12:34:35.573Z,2.60
2019-02-22T12:37:49.766Z,3.00
2019-02-22T12:41:03.403Z,2.37
2019-02-22T12:44:16.903Z,1.60
2019-02-22T12:47:30.400Z,2.30
2019-02-22T12:50:43.880Z,3.80
2019-02-22T12:53:57.330Z,1.57
2019-02-22T12:57:10.796Z,2.77
2019-02-22T13:00:24.604Z,2.07
2019-02-22T13:03:38.109Z,2.00
2019-02-22T13:06:51.574Z,1.97
2019-02-22T13:10:06.013Z,2.90
2019-02-22T13:13:19.484Z,2.00
2019-02-22T13:16:33.069Z,1.60
2019-02-22T13:19:46.876Z,2.10
2019-02-22T13:23:00.382Z,2.40
2019-02-22T13:26:14.333Z,2.00
2019-02-22T13:29:27.824Z,2.13
2019-02-22T13:32:41.298Z,2.23
2019-02-22T13:35:54.955Z,2.47
2019-02-22T13:39:09.075Z,2.40
2019-02-22T13:42:23.124Z,2.30
2019-02-22T13:45:36.895Z,2.30
2019-02-22T13:48:50.381Z,2.20
2019-02-22T13:52:04.171Z,16.03
2019-02-22T13:55:17.650Z,2.40
2019-02-22T13:58:31.146Z,32.87
2019-02-22T14:01:44.814Z,2.80
2019-02-22T14:04:58.271Z,8.40
2019-02-22T14:08:12.007Z,2.00
2019-02-22T14:11:25.464Z,2.47
2019-02-22T14:14:38.941Z,2.67
2019-02-22T14:17:52.425Z,6.70
2019-02-22T14:21:05.895Z,2.37
2019-02-22T14:24:19.364Z,2.60
2019-02-22T14:27:32.827Z,2.37
2019-02-22T14:30:46.814Z,2.37
2019-02-22T14:34:00.294Z,2.67
2019-02-22T14:37:13.805Z,2.60
2019-02-22T14:40:27.247Z,5.53
2019-02-22T14:43:40.720Z,2.30
2019-02-22T14:46:55.123Z,2.90
2019-02-22T14:50:10.915Z,2.83
2019-02-22T14:53:24.377Z,22.40
2019-02-22T14:56:37.844Z,3.67
2019-02-22T14:59:51.307Z,5.10
2019-02-22T15:03:05.081Z,3.43
2019-02-22T15:06:18.797Z,3.37
2019-02-22T15:09:32.525Z,3.27
2019-02-22T15:12:50.228Z,14.93
2019-02-22T15:16:23.461Z,4.60
2019-02-22T15:19:37.207Z,4.87
2019-02-22T15:22:50.879Z,5.63
2019-02-22T15:26:04.489Z,7.77
2019-02-22T15:29:17.979Z,4.93
2019-02-22T15:32:31.441Z,10.67
2019-02-22T15:35:45.168Z,5.20
2019-02-22T15:38:58.668Z,10.33
2019-02-22T15:42:12.259Z,4.47
2019-02-22T15:45:26.009Z,4.33
2019-02-22T15:48:39.460Z,4.50
2019-02-22T15:51:53.243Z,6.27
2019-02-22T15:55:07.276Z,88.73
2019-02-22T15:58:20.740Z,11.03
2019-02-22T16:01:34.218Z,6.87
2019-02-22T16:05:01.121Z,4.50
2019-02-22T16:08:14.921Z,5.13
2019-02-22T16:11:28.484Z,4.77
2019-02-22T16:14:42.056Z,11.87
2019-02-22T16:17:55.984Z,9.10
2019-02-22T16:21:09.454Z,22.63
2019-02-22T16:24:23.202Z,6.07
2019-02-22T16:27:36.775Z,6.23
2019-02-22T16:30:50.943Z,5.57
2019-02-22T16:34:04.498Z,8.23
2019-02-22T16:37:18.798Z,12.50
2019-02-22T16:40:32.256Z,116.63
2019-02-22T16:43:45.705Z,9.60
2019-02-22T16:46:59.478Z,24.60
2019-02-22T16:50:13.184Z,27.57
2019-02-22T16:53:26.799Z,16.77
2019-02-22T16:56:40.260Z,6.63
2019-02-22T16:59:53.759Z,6.10
2019-02-22T17:03:07.340Z,7.17
2019-02-22T17:06:20.894Z,6.03
2019-02-22T17:09:34.350Z,6.00
2019-02-22T17:12:48.376Z,5.87
2019-02-22T17:16:01.833Z,18.07
2019-02-22T17:19:15.617Z,7.57
2019-02-22T17:22:29.072Z,5.37
2019-02-22T17:25:42.554Z,5.17
2019-02-22T17:28:56.031Z,5.63
2019-02-22T17:32:09.907Z,8.40
2019-02-22T17:35:23.668Z,6.40
2019-02-22T17:38:37.326Z,5.60
2019-02-22T17:41:50.786Z,6.47
2019-02-22T17:45:04.951Z,5.30
2019-02-22T17:48:18.536Z,5.30
2019-02-22T17:51:31.998Z,5.17
2019-02-22T17:54:45.711Z,5.60
2019-02-22T17:57:59.175Z,6.03
2019-02-22T18:01:12.655Z,7.47
2019-02-22T18:04:26.134Z,6.97
2019-02-22T18:07:42.431Z,5.03
2019-02-22T18:10:56.470Z,5.97
2019-02-22T18:14:10.075Z,8.03
2019-02-22T18:17:23.588Z,5.77
2019-02-22T18:20:37.444Z,6.70
2019-02-22T18:23:51.562Z,7.70
2019-02-22T18:27:06.528Z,12.87
2019-02-22T18:30:20.139Z,15.00
2019-02-22T18:33:33.714Z,17.97
2019-02-22T18:36:47.185Z,18.53
2019-02-22T18:40:01.144Z,14.90
2019-02-22T18:43:14.802Z,20.97
2019-02-22T18:46:28.378Z,13.33
2019-02-22T18:49:42.169Z,21.73
2019-02-22T18:52:55.748Z,16.90
2019-02-22T18:56:09.584Z,19.83
2019-02-22T18:59:23.099Z,13.17
2019-02-22T19:02:36.563Z,16.13
2019-02-22T19:05:50.031Z,15.13
2019-02-22T19:09:04.834Z,11.83
2019-02-22T19:12:18.703Z,26.97
2019-02-22T19:15:32.455Z,33.93
2019-02-22T19:18:46.135Z,17.47
2019-02-22T19:21:59.586Z,26.17
2019-02-22T19:25:13.651Z,15.63
2019-02-22T19:28:27.104Z,14.53
2019-02-22T19:31:40.674Z,16.33
2019-02-22T19:34:54.494Z,15.97
2019-02-22T19:38:07.964Z,9.07
2019-02-22T19:41:21.436Z,14.37
2019-02-22T19:44:35.237Z,31.33
2019-02-22T19:47:49.063Z,21.30
2019-02-22T19:51:02.530Z,17.93
2019-02-22T19:54:16.020Z,30.93
2019-02-22T19:57:29.488Z,23.67
2019-02-22T20:00:42.950Z,9.00
2019-02-22T20:03:56.425Z,10.43
2019-02-22T20:07:10.056Z,12.00
2019-02-22T20:10:23.936Z,8.80
2019-02-22T20:13:37.395Z,8.93
2019-02-22T20:16:50.861Z,10.70
2019-02-22T20:20:06.106Z,9.93
2019-02-22T20:23:19.673Z,12.10
2019-02-22T20:26:33.642Z,11.83
2019-02-22T20:29:47.146Z,13.33
2019-02-22T20:33:00.614Z,12.07
2019-02-22T20:36:14.042Z,11.17
2019-02-22T20:39:27.794Z,13.80
2019-02-22T20:42:41.270Z,15.97
2019-02-22T20:45:55.028Z,13.37
2019-02-22T20:49:08.474Z,10.40
2019-02-22T20:52:21.942Z,11.77
2019-02-22T20:55:35.857Z,21.57
2019-02-22T20:58:49.327Z,47.23
2019-02-22T21:02:02.909Z,29.23
2019-02-22T21:05:16.709Z,21.70
2019-02-22T21:08:30.169Z,80.87
2019-02-22T21:11:43.660Z,43.33
2019-02-22T21:14:57.125Z,19.43
2019-02-22T21:18:16.247Z,12.63
2019-02-22T21:21:25.948Z,9.17
2019-02-22T21:24:39.728Z,19.77
2019-02-22T21:27:53.203Z,39.47
2019-02-22T21:31:06.656Z,18.60
2019-02-22T21:34:20.227Z,14.13
2019-02-22T21:37:34.060Z,15.03
2019-02-22T21:40:47.788Z,18.63
2019-02-22T21:44:01.365Z,13.27
2019-02-22T21:47:15.108Z,17.47
2019-02-22T21:50:28.558Z,12.93
2019-02-22T21:53:42.035Z,11.50
2019-02-22T21:56:55.478Z,22.60
2019-02-22T22:00:12.255Z,16.87
2019-02-22T22:03:25.723Z,25.63
2019-02-22T22:06:39.181Z,19.07
2019-02-22T22:09:52.641Z,21.47
2019-02-22T22:13:06.092Z,18.73
2019-02-22T22:16:19.882Z,15.23
2019-02-22T22:19:33.447Z,13.37
2019-02-22T22:22:46.901Z,19.30
2019-02-22T22:26:00.363Z,13.27
2019-02-22T22:29:13.828Z,17.30
2019-02-22T22:32:27.946Z,12.33
2019-02-22T22:35:41.549Z,13.37
2019-02-22T22:38:55.277Z,11.77
2019-02-22T22:42:08.743Z,12.63
2019-02-22T22:45:22.257Z,12.70
2019-02-22T22:48:35.778Z,12.20
2019-02-22T22:51:49.477Z,13.93
2019-02-22T22:55:03.058Z,14.00
2019-02-22T22:58:16.603Z,12.50
2019-02-22T23:01:32.651Z,13.10
2019-02-22T23:04:46.320Z,13.73
2019-02-22T23:07:59.795Z,12.73
2019-02-22T23:11:13.381Z,11.90
2019-02-22T23:14:26.832Z,12.10
2019-02-22T23:17:40.292Z,12.47
2019-02-22T23:20:53.869Z,11.40
2019-02-22T23:24:07.415Z,13.00
2019-02-22T23:27:20.890Z,11.80
2019-02-22T23:30:34.346Z,12.63
2019-02-22T23:33:48.031Z,10.87
2019-02-22T23:37:01.512Z,10.43
2019-02-22T23:40:15.082Z,11.13
2019-02-22T23:43:28.531Z,11.97
2019-02-22T23:46:42.278Z,10.33
2019-02-22T23:49:55.834Z,13.17
2019-02-22T23:53:09.580Z,18.43
2019-02-22T23:56:23.038Z,38.97
2019-02-22T23:59:36.483Z,27.17
